Time;durP1;ratioP1;P1;durP2;ratioP2;P2;SDS_P1;SDS_P2;PMS_P1;PMS_P2;Temp;Humidity;BMP_temperature;BMP_pressure;BME280_temperature;BME280_humidity;BME280_pressure;Samples;Min_cycle;Max_cycle;Signal;HPM_P1;HPM_P2
2023/01/01 00:01:29;;;;;;;1999.90;999.90;;;17.00;99.90;;;;;;4936787;29;20449;-83
2023/01/01 00:03:57;;;;;;;1999.90;999.90;;;17.00;99.90;;;;;;4917407;29;20039;-85
2023/01/01 00:06:23;;;;;;;1999.90;999.90;;;17.20;99.90;;;;;;4934962;29;20043;-84
2023/01/01 00:10:26;;;;;;;1999.90;999.90;;;16.70;99.90;;;;;;4937510;29;20126;-84
2023/01/01 00:11:38;;;;;;;1999.90;999.90;;;16.20;99.90;;;;;;4921779;29;20450;-85
2023/01/01 00:14:04;;;;;;;1999.90;999.90;;;16.60;99.90;;;;;;4920465;29;20131;-86
2023/01/01 00:16:30;;;;;;;1999.90;999.90;;;18.00;99.90;;;;;;4918488;29;20134;-86
2023/01/01 00:18:56;;;;;;;1999.90;999.90;;;17.30;99.90;;;;;;4936969;29;20067;-83
2023/01/01 00:21:21;;;;;;;1999.90;584.05;;;17.80;99.90;;;;;;4918436;29;20054;-84
2023/01/01 00:23:47;;;;;;;1999.90;999.90;;;17.30;99.90;;;;;;4919205;29;20548;-82
2023/01/01 00:26:15;;;;;;;1999.90;999.90;;;16.80;99.90;;;;;;4903488;29;20123;-85
2023/01/01 00:28:40;;;;;;;;;;;18.10;99.90;;;;;;4937968;29;20039;-83
2023/01/01 00:31:07;;;;;;;1972.45;771.40;;;17.30;99.90;;;;;;4936827;29;20111;-83
2023/01/01 00:33:33;;;;;;;1999.90;999.90;;;16.30;99.90;;;;;;4935484;29;20070;-85
2023/01/01 00:36:09;;;;;;;1999.90;120.63;;;16.30;99.90;;;;;;4936140;29;20473;-83
2023/01/01 00:38:34;;;;;;;1999.90;999.90;;;17.60;99.90;;;;;;4936925;29;20151;-84
2023/01/01 00:41:00;;;;;;;1999.90;999.90;;;17.40;99.90;;;;;;4933130;29;20123;-84
2023/01/01 00:43:26;;;;;;;1999.90;999.90;;;16.90;99.90;;;;;;4935808;29;20079;-84
2023/01/01 00:45:52;;;;;;;1546.97;136.75;;;17.50;99.90;;;;;;4937296;29;20193;-84
2023/01/01 00:48:18;;;;;;;1999.90;999.90;;;18.00;99.90;;;;;;4904131;29;20521;-90
2023/01/01 00:50:44;;;;;;;1999.90;999.90;;;16.80;99.90;;;;;;4933963;29;20047;-85
2023/01/01 00:53:10;;;;;;;1999.90;280.45;;;17.70;99.90;;;;;;4936114;29;20086;-87
2023/01/01 00:55:37;;;;;;;1999.90;551.92;;;16.90;99.90;;;;;;4919523;29;20047;-82
2023/01/01 00:58:03;;;;;;;1999.90;999.90;;;18.00;99.90;;;;;;4919282;29;20055;-82
2023/01/01 01:00:29;;;;;;;1999.90;999.90;;;16.80;99.90;;;;;;4935589;29;20050;-83
2023/01/01 01:02:54;;;;;;;1999.90;803.80;;;17.00;99.90;;;;;;4935200;29;20043;-81
2023/01/01 01:05:20;;;;;;;1999.90;447.27;;;18.00;99.90;;;;;;4934964;29;20539;-83
2023/01/01 01:07:46;;;;;;;1999.90;999.90;;;17.90;99.90;;;;;;4936289;29;20131;-83
2023/01/01 01:10:11;;;;;;;1999.90;999.90;;;17.00;99.90;;;;;;4937380;29;20138;-84
2023/01/01 01:12:37;;;;;;;1999.90;604.90;;;16.80;99.90;;;;;;4934212;29;20107;-85
2023/01/01 01:15:04;;;;;;;1999.90;999.90;;;17.30;99.90;;;;;;4936729;29;20044;-85
2023/01/01 01:17:30;;;;;;;1999.90;999.90;;;17.90;99.90;;;;;;4935917;29;20501;-83
2023/01/01 01:19:56;;;;;;;1999.90;999.90;;;18.00;99.90;;;;;;4936467;29;20052;-83
2023/01/01 01:22:22;;;;;;;1999.90;999.90;;;17.20;99.90;;;;;;4934843;29;20035;-91
2023/01/01 01:24:47;;;;;;;1999.90;999.90;;;17.50;99.90;;;;;;4936701;29;20048;-85
2023/01/01 01:27:13;;;;;;;1999.90;999.90;;;18.00;99.90;;;;;;4934281;29;20429;-84
2023/01/01 01:29:39;;;;;;;1999.90;999.90;;;18.90;99.90;;;;;;4935406;29;20047;-87
2023/01/01 01:32:05;;;;;;;1999.90;999.90;;;18.20;99.90;;;;;;4916482;29;20047;-88
2023/01/01 01:34:31;;;;;;;1999.90;999.90;;;18.20;99.90;;;;;;4933536;29;20122;-87
2023/01/01 01:36:56;;;;;;;1999.90;999.90;;;16.10;99.90;;;;;;4918085;29;20381;-86
2023/01/01 01:39:22;;;;;;;1999.90;999.90;;;17.10;99.90;;;;;;4936217;29;20489;-84
2023/01/01 01:41:48;;;;;;;1999.90;999.90;;;17.80;99.90;;;;;;4934326;29;20055;-87
2023/01/01 01:44:47;;;;;;;1480.63;297.40;;;16.40;99.90;;;;;;4915444;29;20110;-86
2023/01/01 01:47:44;;;;;;;1999.90;999.90;;;17.60;99.90;;;;;;4934342;29;20048;-87
2023/01/01 01:50:15;;;;;;;1999.90;214.70;;;16.10;99.90;;;;;;4933539;29;20043;-87
2023/01/01 01:52:56;;;;;;;1999.90;999.90;;;17.50;99.90;;;;;;4933917;29;20051;-88
2023/01/01 01:55:21;;;;;;;1577.72;103.22;;;17.60;99.90;;;;;;4918631;29;20052;-84
2023/01/01 01:57:47;;;;;;;1999.90;999.90;;;16.10;99.90;;;;;;4934798;29;20066;-83
2023/01/01 02:00:13;;;;;;;1999.90;795.70;;;16.00;99.90;;;;;;4936483;29;20496;-84
2023/01/01 02:03:05;;;;;;;1999.90;805.42;;;17.20;99.90;;;;;;4913304;29;20051;-83
2023/01/01 02:05:32;;;;;;;1999.90;454.95;;;16.00;99.90;;;;;;4933423;29;20392;-83
2023/01/01 02:07:59;;;;;;;1999.90;536.55;;;18.00;99.90;;;;;;4935696;29;20094;-84
2023/01/01 02:10:26;;;;;;;1999.90;508.95;;;17.60;99.90;;;;;;4935867;29;20397;-87
2023/01/01 02:12:52;;;;;;;1999.90;999.90;;;16.50;99.90;;;;;;4934622;29;20047;-82
2023/01/01 02:15:18;;;;;;;1999.90;776.72;;;17.20;99.90;;;;;;4918022;29;20051;-82
2023/01/01 02:18:08;;;;;;;1999.90;999.90;;;17.90;99.90;;;;;;4935383;29;20090;-83
2023/01/01 02:20:48;;;;;;;1999.90;614.60;;;16.30;99.90;;;;;;4916876;29;20079;-82
2023/01/01 02:23:29;;;;;;;1999.90;999.90;;;16.70;99.90;;;;;;4918781;29;20036;-84
2023/01/01 02:26:21;;;;;;;1999.90;505.60;;;16.50;99.90;;;;;;4934537;29;20083;-84
2023/01/01 02:29:04;;;;;;;1996.22;802.47;;;18.00;99.90;;;;;;4933849;29;20035;-85
2023/01/01 02:31:57;;;;;;;1999.90;999.90;;;17.90;99.90;;;;;;4935048;29;20408;-92
2023/01/01 02:34:27;;;;;;;1780.78;529.03;;;17.60;99.90;;;;;;4914992;29;20056;-82
2023/01/01 02:36:56;;;;;;;1999.90;999.90;;;16.70;99.90;;;;;;4917684;29;20047;-84
2023/01/01 02:39:26;;;;;;;1999.90;999.90;;;16.90;99.90;;;;;;4935589;29;20040;-85
2023/01/01 02:41:55;;;;;;;1999.90;999.90;;;16.80;99.90;;;;;;4934767;29;20051;-82
2023/01/01 02:44:23;;;;;;;1999.90;999.90;;;16.90;99.90;;;;;;4934700;29;20083;-88
2023/01/01 02:46:49;;;;;;;1999.90;999.90;;;17.80;99.90;;;;;;4933238;29;20054;-85
2023/01/01 02:49:15;;;;;;;1945.20;544.22;;;16.80;61.40;;;;;;4934454;29;20130;-83
2023/01/01 02:52:15;;;;;;;1999.90;999.90;;;17.50;1.00;;;;;;4914609;29;20048;-83
2023/01/01 02:54:46;;;;;;;;;;;17.70;61.40;;;;;;4931148;29;20058;-91
2023/01/01 02:57:35;;;;;;;1904.63;771.58;;;17.00;99.90;;;;;;4932388;29;19925;-88
2023/01/01 03:00:18;;;;;;;1999.90;999.90;;;17.50;99.90;;;;;;4932368;29;20086;-83
2023/01/01 03:03:01;;;;;;;1999.90;999.90;;;17.50;1.00;;;;;;4932767;29;20055;-86
2023/01/01 03:05:30;;;;;;;1999.90;999.90;;;17.50;99.90;;;;;;4933086;29;20126;-89
2023/01/01 03:08:14;;;;;;;1999.90;999.90;;;16.80;99.90;;;;;;4934630;29;20047;-84
2023/01/01 03:11:06;;;;;;;1999.90;999.90;;;17.30;1.00;;;;;;4917541;29;20416;-84
2023/01/01 03:13:41;;;;;;;1999.90;999.90;;;17.00;99.90;;;;;;4918103;29;20054;-82
2023/01/01 03:16:13;;;;;;;1999.90;999.90;;;17.20;1.00;;;;;;4918438;29;20047;-84
2023/01/01 03:18:47;;;;;;;1999.90;999.90;;;17.50;99.90;;;;;;4921172;29;20054;-81
2023/01/01 03:21:16;;;;;;;1999.90;999.90;;;17.50;99.90;;;;;;4921405;29;20469;-84
2023/01/01 03:23:48;;;;;;;1999.90;999.90;;;17.40;1.00;;;;;;4920341;29;20144;-85
2023/01/01 03:26:17;;;;;;;1999.90;999.90;;;17.30;1.00;;;;;;4903513;29;20131;-87
2023/01/01 03:28:47;;;;;;;1999.90;999.90;;;17.60;99.90;;;;;;4935233;29;20051;-84
2023/01/01 03:31:17;;;;;;;1784.97;765.42;;;16.00;1.00;;;;;;4937750;29;20059;-83
2023/01/01 03:33:47;;;;;;;1999.90;999.90;;;17.60;99.90;;;;;;4919311;29;20051;-82
2023/01/01 03:36:20;;;;;;;1999.90;999.90;;;17.40;1.00;;;;;;4908265;29;20040;-82
2023/01/01 03:38:53;;;;;;;1825.93;766.95;;;17.40;99.90;;;;;;4938045;29;20122;-83
2023/01/01 03:41:57;;;;;;;1797.60;771.17;;;17.70;99.90;;;;;;4938053;29;20048;-83
2023/01/01 03:44:25;;;;;;;1999.90;999.90;;;17.50;99.90;;;;;;4938422;29;20050;-83
2023/01/01 03:46:52;;;;;;;1999.90;999.90;;;17.40;58.50;;;;;;4936403;29;20055;-83
2023/01/01 03:49:19;;;;;;;733.95;21.02;;;17.40;99.90;;;;;;4938179;29;20128;-82
2023/01/01 03:52:03;;;;;;;1624.47;753.08;;;17.50;99.90;;;;;;4920477;29;20043;-83
2023/01/01 03:54:41;;;;;;;1999.90;999.90;;;17.40;99.90;;;;;;4937440;29;20385;-84
2023/01/01 03:57:26;;;;;;;1999.90;999.90;;;17.30;99.90;;;;;;4936097;29;20385;-81
2023/01/01 04:00:02;;;;;;;1999.90;999.90;;;18.00;1.00;;;;;;4937729;29;20056;-83
2023/01/01 04:02:39;;;;;;;1999.90;999.90;;;17.40;1.00;;;;;;4937801;29;20063;-82
2023/01/01 04:05:06;;;;;;;1999.90;999.90;;;17.30;99.90;;;;;;4920500;29;20405;-82
2023/01/01 04:07:32;;;;;;;1999.90;999.90;;;17.20;1.00;;;;;;4934293;29;20123;-82
2023/01/01 04:10:00;;;;;;;1999.90;999.90;;;17.30;99.90;;;;;;4936739;29;20106;-81
2023/01/01 04:12:28;;;;;;;1999.90;999.90;;;17.10;99.90;;;;;;4937274;29;20039;-81
2023/01/01 04:14:54;;;;;;;1999.90;999.90;;;17.20;12.60;;;;;;4936597;29;21422;-82
2023/01/01 04:17:20;;;;;;;1999.90;999.90;;;17.10;99.90;;;;;;4932947;29;20047;-84
2023/01/01 04:19:45;;;;;;;1999.90;999.90;;;17.00;1.00;;;;;;4918196;29;20056;-82
2023/01/01 04:22:11;;;;;;;1999.90;999.90;;;16.90;99.90;;;;;;4937410;29;20054;-82
2023/01/01 04:24:36;;;;;;;1999.90;999.90;;;16.80;99.90;;;;;;4936615;29;20040;-82
2023/01/01 04:27:02;;;;;;;1999.90;999.90;;;16.80;99.90;;;;;;4935358;29;20485;-82
2023/01/01 04:29:28;;;;;;;1999.90;999.90;;;16.80;1.00;;;;;;4936135;29;20043;-82
2023/01/01 04:31:54;;;;;;;1999.90;999.90;;;16.60;99.90;;;;;;4917922;29;20127;-82
2023/01/01 04:34:20;;;;;;;1999.90;999.90;;;16.60;1.00;;;;;;4935576;29;20043;-83
2023/01/01 04:36:45;;;;;;;1999.90;999.90;;;16.40;99.90;;;;;;4935312;29;20047;-83
2023/01/01 04:39:11;;;;;;;1999.90;999.90;;;16.40;99.90;;;;;;4935132;29;20044;-83
2023/01/01 04:41:37;;;;;;;1999.90;262.83;;;16.70;99.90;;;;;;4936993;29;20058;-84
2023/01/01 04:44:03;;;;;;;1999.90;999.90;;;16.60;99.90;;;;;;4937120;29;20451;-84
2023/01/01 04:46:28;;;;;;;1999.90;332.73;;;16.80;1.00;;;;;;4917639;29;20499;-82
2023/01/01 04:48:54;;;;;;;1999.90;999.90;;;16.90;99.90;;;;;;4935792;29;20460;-82
2023/01/01 04:51:20;;;;;;;1999.90;196.95;;;17.00;76.40;;;;;;4936985;29;20123;-84
2023/01/01 04:53:46;;;;;;;1999.90;999.90;;;16.90;1.00;;;;;;4917777;29;20066;-83
2023/01/01 04:56:14;;;;;;;1999.90;999.90;;;16.90;49.50;;;;;;4904459;29;20473;-85
2023/01/01 04:58:41;;;;;;;1999.90;999.90;;;16.90;1.00;;;;;;4934989;29;20047;-82
2023/01/01 05:01:08;;;;;;;1999.90;999.90;;;17.00;99.90;;;;;;4898008;29;20059;-82
2023/01/01 05:03:33;;;;;;;1497.15;513.95;;;17.00;1.00;;;;;;4912956;29;20122;-82
2023/01/01 05:06:04;;;;;;;1999.90;999.90;;;17.00;99.90;;;;;;4936138;29;20091;-82
2023/01/01 05:08:32;;;;;;;1999.90;999.90;;;17.00;99.90;;;;;;4927500;29;20078;-81
2023/01/01 05:11:02;;;;;;;1999.90;317.52;;;17.00;99.90;;;;;;4933702;29;20051;-81
2023/01/01 05:13:29;;;;;;;1999.90;999.90;;;17.00;99.90;;;;;;4918724;29;20051;-82
2023/01/01 05:15:54;;;;;;;1999.90;999.90;;;16.90;99.90;;;;;;4936380;29;20058;-82
2023/01/01 05:18:20;;;;;;;1999.90;999.90;;;17.00;99.90;;;;;;4936765;29;20069;-81
2023/01/01 05:20:46;;;;;;;1672.45;159.90;;;16.50;99.90;;;;;;4932612;29;21240;-82
2023/01/01 05:23:11;;;;;;;1999.90;999.90;;;16.80;99.90;;;;;;4915535;29;20392;-82
2023/01/01 05:25:37;;;;;;;1999.90;999.90;;;16.80;99.90;;;;;;4934606;29;20055;-81
2023/01/01 05:28:03;;;;;;;1999.90;999.90;;;16.70;99.90;;;;;;4915529;29;20362;-81
2023/01/01 05:30:29;;;;;;;1999.90;999.90;;;16.70;99.90;;;;;;4920248;29;20118;-81
2023/01/01 05:32:54;;;;;;;1999.90;999.90;;;16.80;99.90;;;;;;4935712;29;20079;-81
2023/01/01 05:35:20;;;;;;;1999.90;999.90;;;16.90;99.90;;;;;;4936027;29;20048;-80
2023/01/01 05:37:46;;;;;;;1999.90;431.35;;;17.10;63.10;;;;;;4918806;29;20544;-82
2023/01/01 05:40:11;;;;;;;1999.90;999.90;;;15.70;23.80;;;;;;4935358;29;20048;-82
2023/01/01 05:42:37;;;;;;;1999.90;999.90;;;16.90;36.40;;;;;;4935099;29;20441;-85
2023/01/01 05:45:03;;;;;;;1999.90;999.90;;;16.80;69.90;;;;;;4935701;29;20044;-86
2023/01/01 05:47:29;;;;;;;1999.90;999.90;;;16.80;72.50;;;;;;4935329;29;20435;-84
2023/01/01 05:49:55;;;;;;;1999.90;999.90;;;16.70;90.20;;;;;;4935351;29;20135;-84
2023/01/01 05:52:21;;;;;;;1999.90;999.90;;;16.60;99.90;;;;;;4935127;29;20051;-90
2023/01/01 05:54:46;;;;;;;1999.90;999.90;;;16.80;68.10;;;;;;4934230;29;20039;-88
2023/01/01 05:57:12;;;;;;;1999.90;999.90;;;16.70;90.00;;;;;;4931981;29;20114;-87
2023/01/01 05:59:38;;;;;;;1999.90;999.90;;;16.60;95.00;;;;;;4918943;29;20457;-87
2023/01/01 06:02:03;;;;;;;1999.90;999.90;;;16.50;84.80;;;;;;4934602;29;20051;-88
2023/01/01 06:04:29;;;;;;;1999.90;999.90;;;16.60;40.10;;;;;;4935155;29;20044;-87
2023/01/01 06:06:55;;;;;;;1999.90;999.90;;;16.60;34.40;;;;;;4935167;29;20047;-85
2023/01/01 06:09:20;;;;;;;1999.90;999.90;;;16.60;10.30;;;;;;4920583;29;20052;-86
2023/01/01 06:11:46;;;;;;;1999.90;999.90;;;16.60;1.00;;;;;;4921134;29;20090;-85
2023/01/01 06:14:12;;;;;;;1999.90;999.90;;;19.80;1.00;;;;;;4937287;29;20047;-88
2023/01/01 06:16:37;;;;;;;1999.90;999.90;;;16.60;1.00;;;;;;4931497;29;20113;-87
2023/01/01 06:19:03;;;;;;;1999.90;999.90;;;16.50;1.00;;;;;;4935175;29;20039;-86
2023/01/01 06:21:29;;;;;;;1999.90;999.90;;;16.60;1.00;;;;;;4935027;29;20054;-86
2023/01/01 06:23:56;;;;;;;1999.90;999.90;;;16.50;1.00;;;;;;4916885;29;20106;-88
2023/01/01 06:26:25;;;;;;;1999.90;999.90;;;16.60;1.00;;;;;;4918165;29;20054;-87
2023/01/01 06:28:51;;;;;;;1999.90;999.90;;;16.40;1.00;;;;;;4935809;29;20040;-85
2023/01/01 06:31:20;;;;;;;1999.90;999.90;;;16.40;1.00;;;;;;4932604;29;20046;-85
2023/01/01 06:33:46;;;;;;;1999.90;999.90;;;16.30;1.00;;;;;;4914924;29;20051;-84
2023/01/01 06:36:13;;;;;;;1999.90;999.90;;;16.40;1.00;;;;;;4932976;29;20119;-87
2023/01/01 06:38:41;;;;;;;1999.90;999.90;;;16.30;1.00;;;;;;4935178;29;20077;-90
2023/01/01 06:41:10;;;;;;;1999.90;999.90;;;16.50;1.00;;;;;;4932871;29;20047;-87
2023/01/01 06:43:37;;;;;;;1999.90;999.90;;;16.40;1.00;;;;;;4934107;29;20074;-85
2023/01/01 06:46:11;;;;;;;1999.90;999.90;;;16.30;1.00;;;;;;4935216;29;20055;-85
2023/01/01 06:48:37;;;;;;;1999.90;999.90;;;16.20;1.00;;;;;;4935208;29;20438;-85
2023/01/01 06:51:23;;;;;;;1999.90;999.90;;;16.10;1.00;;;;;;4933489;29;20071;-84
2023/01/01 06:53:50;;;;;;;1999.90;999.90;;;16.20;1.00;;;;;;4917691;29;20047;-82
2023/01/01 06:56:16;;;;;;;1999.90;999.90;;;16.10;1.00;;;;;;4917467;29;20044;-85
2023/01/01 06:58:43;;;;;;;1999.90;999.90;;;15.90;1.00;;;;;;4917774;29;20164;-85
2023/01/01 07:01:23;;;;;;;1999.90;999.90;;;16.00;1.00;;;;;;4933796;29;20469;-84
2023/01/01 07:04:01;;;;;;;1876.63;558.55;;;16.00;1.00;;;;;;4935415;29;20173;-82
2023/01/01 07:06:28;;;;;;;1999.90;999.90;;;16.10;1.00;;;;;;4934770;29;20050;-81
2023/01/01 07:08:54;;;;;;;1999.90;999.90;;;15.90;1.00;;;;;;4934181;29;20362;-81
2023/01/01 07:11:20;;;;;;;1999.90;999.90;;;16.00;1.00;;;;;;4932693;29;20039;-81
2023/01/01 07:13:46;;;;;;;1999.90;999.90;;;15.90;1.00;;;;;;4933285;29;20111;-81
2023/01/01 07:16:13;;;;;;;1999.90;999.90;;;15.60;1.00;;;;;;4931982;29;20142;-82
2023/01/01 07:18:39;;;;;;;1999.90;999.90;;;15.60;1.00;;;;;;4915688;29;20052;-79
2023/01/01 07:21:19;;;;;;;1126.07;504.20;;;15.70;1.00;;;;;;4924384;29;20472;-79
2023/01/01 07:23:45;;;;;;;1999.90;999.90;;;15.90;1.00;;;;;;4935169;29;20382;-79
2023/01/01 07:26:10;;;;;;;1999.90;999.90;;;15.70;1.00;;;;;;4932516;29;20054;-80
2023/01/01 07:28:36;;;;;;;1999.90;999.90;;;15.60;1.00;;;;;;4921609;29;20549;-82
2023/01/01 07:31:02;;;;;;;1999.90;999.90;;;15.60;1.00;;;;;;4914784;29;20066;-85
2023/01/01 07:33:27;;;;;;;1999.90;999.90;;;15.80;1.00;;;;;;4929178;29;20090;-80
2023/01/01 07:35:53;;;;;;;1999.90;999.90;;;15.60;1.00;;;;;;4929561;29;20080;-82
2023/01/01 07:38:19;;;;;;;1999.90;999.90;;;15.60;1.00;;;;;;4931700;29;20404;-81
2023/01/01 07:40:44;;;;;;;1999.90;999.90;;;15.60;1.00;;;;;;4933517;29;20047;-81
2023/01/01 07:43:13;;;;;;;1999.90;999.90;;;15.50;1.00;;;;;;4933085;29;20048;-81
2023/01/01 07:45:40;;;;;;;1999.90;999.90;;;15.70;1.00;;;;;;4917745;29;20056;-80
2023/01/01 07:48:08;;;;;;;1291.55;511.15;;;15.70;1.00;;;;;;4932457;29;20086;-81
2023/01/01 07:50:36;;;;;;;1999.90;999.90;;;15.60;1.00;;;;;;4916580;29;20044;-79
2023/01/01 07:53:01;;;;;;;;;;;15.60;1.00;;;;;;4934177;29;20099;-80
2023/01/01 07:55:27;;;;;;;1999.90;999.90;;;15.70;1.00;;;;;;4917126;29;19973;-80
2023/01/01 07:57:53;;;;;;;1854.10;256.00;;;15.70;1.00;;;;;;4913188;29;20051;-81
2023/01/01 08:00:20;;;;;;;1999.90;999.90;;;15.80;1.00;;;;;;4932494;29;20187;-78
2023/01/01 08:02:46;;;;;;;1999.90;999.90;;;15.80;1.00;;;;;;4934304;29;20083;-79
2023/01/01 08:05:11;;;;;;;1999.90;999.90;;;15.50;1.00;;;;;;4936240;29;20114;-79
2023/01/01 08:07:37;;;;;;;1999.90;999.90;;;15.50;1.00;;;;;;4937604;29;20043;-79
2023/01/01 08:10:07;;;;;;;1999.90;999.90;;;15.50;1.00;;;;;;4935831;29;20043;-79
2023/01/01 08:12:32;;;;;;;1999.90;999.90;;;15.70;1.00;;;;;;4936512;29;20493;-79
2023/01/01 08:14:58;;;;;;;1999.90;999.90;;;15.60;1.00;;;;;;4917604;29;20064;-80
2023/01/01 08:17:24;;;;;;;1999.90;999.90;;;15.50;1.00;;;;;;4929300;29;20066;-79
2023/01/01 08:19:50;;;;;;;1999.90;999.90;;;15.50;1.00;;;;;;4935272;29;20052;-80
2023/01/01 08:22:16;;;;;;;1999.90;999.90;;;15.50;1.00;;;;;;4919543;29;20083;-81
2023/01/01 08:24:42;;;;;;;1999.90;999.90;;;15.40;1.00;;;;;;4929015;29;20650;-81
2023/01/01 08:27:12;;;;;;;1999.90;999.90;;;15.40;1.00;;;;;;4936266;29;20047;-81
2023/01/01 08:29:38;;;;;;;1999.90;999.90;;;15.30;1.00;;;;;;4934373;29;20043;-84
2023/01/01 08:32:03;;;;;;;1999.90;999.90;;;15.20;1.00;;;;;;4937359;29;20070;-82
2023/01/01 08:34:29;;;;;;;1999.90;999.90;;;15.30;1.00;;;;;;4930758;29;20304;-82
2023/01/01 08:36:55;;;;;;;1999.90;999.90;;;15.20;19.10;;;;;;4932257;29;20061;-83
2023/01/01 08:39:21;;;;;;;1999.90;999.90;;;15.30;1.00;;;;;;4936388;29;20079;-83
2023/01/01 08:41:46;;;;;;;1999.90;999.90;;;15.40;1.00;;;;;;4936758;29;20049;-82
2023/01/01 08:44:12;;;;;;;1999.90;999.90;;;15.30;1.00;;;;;;4936272;29;20099;-84
2023/01/01 08:46:38;;;;;;;1999.90;999.90;;;15.40;1.00;;;;;;4936884;29;20058;-84
2023/01/01 08:49:03;;;;;;;1999.90;999.90;;;15.40;1.00;;;;;;4932214;29;20044;-86
2023/01/01 08:51:29;;;;;;;1327.05;299.42;;;15.50;1.00;;;;;;4897057;29;20468;-89
2023/01/01 08:53:55;;;;;;;1999.90;999.90;;;15.60;1.00;;;;;;4934608;29;20563;-87
2023/01/01 08:56:20;;;;;;;1999.90;999.90;;;15.50;1.00;;;;;;4937410;29;20083;-87
2023/01/01 08:58:46;;;;;;;1754.55;776.38;;;15.40;1.00;;;;;;4936761;29;20052;-83
2023/01/01 09:01:12;;;;;;;1999.90;999.90;;;15.40;1.00;;;;;;4934684;29;20053;-90
2023/01/01 09:03:38;;;;;;;1999.90;999.90;;;15.40;1.00;;;;;;4937814;29;20127;-89
2023/01/01 09:06:04;;;;;;;1999.90;999.90;;;15.30;1.00;;;;;;4935455;29;20386;-90
2023/01/01 09:08:30;;;;;;;1999.90;999.90;;;15.40;1.00;;;;;;4935046;29;20481;-90
2023/01/01 09:11:00;;;;;;;1766.20;762.55;;;15.40;1.00;;;;;;4936285;29;20052;-89
2023/01/01 09:13:27;;;;;;;1999.90;999.90;;;15.40;1.00;;;;;;4934258;29;20180;-89
2023/01/01 09:15:53;;;;;;;1999.90;999.90;;;15.40;1.00;;;;;;4935185;29;20058;-89
2023/01/01 09:18:18;;;;;;;1999.90;999.90;;;15.50;1.00;;;;;;4900837;29;20047;-88
2023/01/01 09:20:44;;;;;;;1999.90;999.90;;;15.50;1.00;;;;;;4926668;29;20102;-88
2023/01/01 09:23:11;;;;;;;1999.90;999.90;;;15.50;1.00;;;;;;4929581;29;20436;-89
2023/01/01 09:25:37;;;;;;;1999.90;999.90;;;15.50;1.00;;;;;;4922412;29;20040;-91
2023/01/01 09:28:06;;;;;;;1999.90;999.90;;;15.50;1.00;;;;;;4934227;29;20044;-89
2023/01/01 09:30:32;;;;;;;1999.90;999.90;;;15.50;1.00;;;;;;4911110;29;20382;-88
2023/01/01 09:32:58;;;;;;;1999.90;999.90;;;15.50;1.00;;;;;;4925997;29;20497;-88
2023/01/01 09:35:24;;;;;;;1999.90;999.90;;;15.50;1.00;;;;;;4930823;29;20050;-86
2023/01/01 09:37:49;;;;;;;1999.90;999.90;;;15.60;1.00;;;;;;4931818;29;20133;-86
2023/01/01 09:40:53;;;;;;;1999.90;999.90;;;15.50;1.00;;;;;;4885173;29;20651;-88
2023/01/01 09:43:37;;;;;;;1999.90;999.90;;;15.50;1.00;;;;;;4927975;29;20071;-87
2023/01/01 09:46:07;;;;;;;1999.90;999.90;;;15.50;1.00;;;;;;4933912;29;20050;-86
2023/01/01 09:48:39;;;;;;;1999.90;999.90;;;15.50;1.00;;;;;;4931747;29;20047;-86
2023/01/01 09:51:11;;;;;;;1999.90;999.90;;;15.50;1.00;;;;;;4933074;29;20090;-85
2023/01/01 09:53:51;;;;;;;1999.90;999.90;;;15.50;1.00;;;;;;4933484;29;20047;-84
2023/01/01 09:56:22;;;;;;;1999.90;999.90;;;15.50;1.00;;;;;;4930122;29;20040;-85
2023/01/01 09:58:48;;;;;;;1885.47;772.58;;;15.50;1.00;;;;;;4930486;29;20063;-84
2023/01/01 10:01:33;;;;;;;1999.90;999.90;;;15.50;1.00;;;;;;4934713;29;20400;-86
2023/01/01 10:04:33;;;;;;;1999.90;999.90;;;15.60;1.00;;;;;;4916026;29;20379;-84
2023/01/01 10:07:13;;;;;;;1999.90;999.90;;;16.00;1.00;;;;;;4934153;29;20051;-83
2023/01/01 10:09:54;;;;;;;1999.90;999.90;;;15.60;1.00;;;;;;4934934;29;20073;-83
2023/01/01 10:12:47;;;;;;;1999.90;999.90;;;15.60;1.00;;;;;;4935103;29;20052;-84
2023/01/01 10:15:29;;;;;;;1835.28;763.25;;;15.60;1.00;;;;;;4918278;29;20083;-83
2023/01/01 10:17:58;;;;;;;1999.90;999.90;;;15.60;1.00;;;;;;4934635;29;20822;-83
2023/01/01 10:20:29;;;;;;;1999.90;999.90;;;15.60;1.00;;;;;;4934793;29;20083;-83
2023/01/01 10:23:01;;;;;;;1999.90;999.90;;;15.50;1.00;;;;;;4935006;29;20051;-83
2023/01/01 10:25:30;;;;;;;1999.90;999.90;;;15.50;1.00;;;;;;4933890;29;20044;-82
2023/01/01 10:28:05;;;;;;;1999.90;999.90;;;15.50;1.00;;;;;;4933641;29;20048;-83
2023/01/01 10:30:30;;;;;;;1999.90;999.90;;;15.50;1.00;;;;;;4905763;29;20047;-81
2023/01/01 10:32:57;;;;;;;1999.90;999.90;;;15.50;1.00;;;;;;4917081;29;20091;-83
2023/01/01 10:35:37;;;;;;;1999.90;999.90;;;15.40;1.00;;;;;;4906307;29;20056;-82
2023/01/01 10:38:04;;;;;;;1999.90;999.90;;;15.50;1.00;;;;;;4899711;29;20095;-82
2023/01/01 10:40:30;;;;;;;1999.90;999.90;;;15.50;1.00;;;;;;4932309;29;20118;-83
2023/01/01 10:42:58;;;;;;;1999.90;999.90;;;15.40;1.00;;;;;;4934074;29;20043;-83
2023/01/01 10:45:29;;;;;;;;;;;15.40;1.00;;;;;;4916048;29;20055;-82
2023/01/01 10:48:32;;;;;;;1999.90;999.90;;;15.50;1.00;;;;;;4924541;29;19930;-81
2023/01/01 10:51:15;;;;;;;1603.65;539.65;;;15.50;1.00;;;;;;4917292;29;20053;-82
2023/01/01 10:53:59;;;;;;;1999.90;999.90;;;15.60;1.00;;;;;;4918142;29;20059;-81
2023/01/01 10:56:36;;;;;;;1999.90;999.90;;;15.60;1.00;;;;;;4934167;29;20059;-81
2023/01/01 10:59:02;;;;;;;1999.90;999.90;;;15.60;99.90;;;;;;4906722;29;20083;-82
2023/01/01 11:01:32;;;;;;;1999.90;999.90;;;15.50;99.90;;;;;;4934394;29;20111;-80
2023/01/01 11:04:02;;;;;;;1999.90;999.90;;;15.50;99.90;;;;;;4935313;29;20056;-81
2023/01/01 11:06:38;;;;;;;1999.90;999.90;;;15.40;99.90;;;;;;4934236;29;20051;-81
2023/01/01 11:09:17;;;;;;;1999.90;999.90;;;15.40;1.00;;;;;;4901599;29;20051;-81
2023/01/01 11:11:45;;;;;;;1999.90;999.90;;;15.50;99.90;;;;;;4934063;29;20503;-81
2023/01/01 11:14:34;;;;;;;1999.90;999.90;;;15.40;1.00;;;;;;4918187;29;20078;-80
2023/01/01 11:17:00;;;;;;;1999.90;999.90;;;15.30;1.00;;;;;;4934972;29;20052;-81
2023/01/01 11:19:31;;;;;;;1999.90;999.90;;;15.30;99.90;;;;;;4934028;29;20040;-84
2023/01/01 11:21:58;;;;;;;1999.90;999.90;;;15.40;99.90;;;;;;4932816;29;20095;-81
2023/01/01 11:24:26;;;;;;;1999.90;999.90;;;15.40;99.90;;;;;;4932401;29;20047;-81
2023/01/01 11:26:53;;;;;;;;;;;15.50;99.90;;;;;;4933911;29;20330;-81
2023/01/01 11:29:23;;;;;;;1999.90;999.90;;;15.40;99.90;;;;;;4901847;29;20412;-81
2023/01/01 11:31:50;;;;;;;1999.90;999.90;;;15.40;99.90;;;;;;4933509;29;20083;-80
2023/01/01 11:34:28;;;;;;;1999.90;999.90;;;15.80;99.90;;;;;;4933895;29;20055;-83
2023/01/01 11:37:16;;;;;;;1999.90;999.90;;;15.50;99.90;;;;;;4939524;29;20397;-80
2023/01/01 11:39:45;;;;;;;1999.90;999.90;;;15.50;99.90;;;;;;4938278;29;20040;-80
2023/01/01 11:42:23;;;;;;;1999.90;999.90;;;15.50;99.90;;;;;;4920369;29;20496;-80
2023/01/01 11:44:54;;;;;;;1999.90;999.90;;;15.50;99.90;;;;;;4937410;29;20078;-81
2023/01/01 11:47:41;;;;;;;1999.90;999.90;;;15.50;99.90;;;;;;4926237;29;20315;-81
2023/01/01 11:50:13;;;;;;;1999.90;999.90;;;15.40;99.90;;;;;;4918638;29;20040;-81
2023/01/01 11:52:48;;;;;;;1999.90;999.90;;;15.30;99.90;;;;;;4933904;29;20059;-81
2023/01/01 11:55:20;;;;;;;1999.90;999.90;;;15.30;99.90;;;;;;4937556;29;20122;-81
2023/01/01 11:58:09;;;;;;;1999.90;999.90;;;15.40;99.90;;;;;;4937312;29;20047;-81
2023/01/01 12:00:36;;;;;;;1999.90;999.90;;;15.30;99.90;;;;;;4918788;29;20084;-81
2023/01/01 12:03:21;;;;;;;1999.90;999.90;;;15.40;1.00;;;;;;4917611;29;20543;-82
2023/01/01 12:06:05;;;;;;;1999.90;999.90;;;15.40;99.90;;;;;;4918781;29;20135;-80
2023/01/01 12:08:33;;;;;;;1999.90;999.90;;;15.50;99.90;;;;;;4936896;29;20439;-81
2023/01/01 12:11:31;;;;;;;1999.90;999.90;;;15.60;99.90;;;;;;4937846;29;20058;-82
2023/01/01 12:14:12;;;;;;;1999.90;999.90;;;15.80;99.90;;;;;;4920200;29;20505;-81
2023/01/01 12:16:56;;;;;;;1999.90;999.90;;;15.70;99.90;;;;;;4937463;29;20051;-80
2023/01/01 12:19:29;;;;;;;1999.90;999.90;;;15.60;99.90;;;;;;4921418;29;20486;-80
2023/01/01 12:21:58;;;;;;;1999.90;999.90;;;15.60;99.90;;;;;;4902655;29;20056;-82